Colby, WI (54421)

7:18 PM CDT on May 27, 2015 (GMT -0500)
WIDOT | | Change Station
CLOSE
Current Station
Personal Weather Station
Location: Abbotsford, WI
Elevation: 1400 ft
Nearby Weather Stations
Active Advisory: Special Statement

Elev 1400 ft 44.95 °N, 90.27 °W | Updated 26 minutes ago

Clear
Clear
72 °F
Feels Like 77 °F
N
0
Wind Variable Wind from WSW
Gusts 0.0 mph

Today
High -- | Low -- °F
--% Chance of Precip.
Yesterday
High -- | Low -- °F
Precip. -- in
5:21 AM 8:35 PM
Waxing Gibbous, 71% visible
Pressure 30.00 in
Visibility 10.0 miles
Clouds Clear
Heat Index 77 °F
Dew Point 55 °F
Humidity 55%
Rainfall in
Snow Depth Not available.
UV 1 out of 12
Pollen 4.00 out of 12
Air Quality Not available.
Flu Activity Sporadic
METAR KMDZ 272355Z AUTO 23003KT 10SM VCTS CLR 22/16 A3000 RMK AO2 LTG DSNT NW THRU NE T02150155 10231 20197

More Conditions Fewer Conditions

Pressure 30.00 in
Visibility 10.0 miles
Clouds Clear
Heat Index 77 °F
Dew Point 55 °F
Humidity 55%
Rainfall in
Snow Depth Not available.
UV 1 out of 12
Pollen 4.00 out of 12
Air Quality Not available.
Flu Activity Sporadic
METAR KMDZ 272355Z AUTO 23003KT 10SM VCTS CLR 22/16 A3000 RMK AO2 LTG DSNT NW THRU NE T02150155 10231 20197

More Conditions Fewer Conditions

10-Day Weather Forecast

Almanac

Astronomy

May. 27, 2015 Rise Set
Actual Time
Civil Twilight
Nautical Twilight
Astronomical Twilight
Moon
Length of Visible Light
Length of Day
Tomorrow will be .
, % of the Moon is Illuminated

Today's Extremes

State Highs State Lows

Community

WunderPhotos

Upload Photos

1,824,829 photos uploaded!

WunderBlogs® & News

Nearby

Air Quality

  Air Quality AQ Index Pollutant
Not available.

Snow Depth

Station Depth Elevation

Earthquake Activity

City Distance Mag. Time & Date
Minimum magnitude displayed is 2.5.

Coastal Water Temperatures

Place Temperature

Stations

Nearby Weather Stations

Station Location Temp. Windchill Dew Point Humidity Wind Precip. Elev Updated Type
                   
Special Statement
Statement as of 7:04 PM CDT on May 27, 2015

... An area of strong thunderstorms will affect southwestern Taylor
and northern Clark counties...

At 704 PM CDT... an area of strong thunderstorms was 14 miles
southeast of Jump River... or 14 miles west of Medford... moving
southeast at 30 mph.

Winds in excess of 40 mph and pea to dime size hail are possible
with this storm.

This storm will be near...
Owen around 735 PM CDT.
Greenwood around 755 PM CDT.
Loyal around 800 PM CDT.

This storm may intensify... so be certain to monitor local radio and
TV stations... as well as local cable TV outlets... for additional
information and possible warnings from the National Weather Service.

Lat... Lon 4475 9031 4474 9032 4474 9091 4500 9092
      4527 9092 4528 9057
time... Mot... loc 0004z 336deg 27kt 4518 9065

Jsb